Medford, MN (55049)

3:47 PM CDT on July 30, 2016 (GMT -0500)
Owatonna Degner Regional | | Change Station

Elev 1145 ft 44.12 °N, 93.26 °W | Updated 12 minutes ago

Light Rain
Light Rain
72 °F
Feels Like 72 °F
N
7
Wind Variable Wind from NE

Today
High -- | Low -- °F
--% Chance of Precip.
Yesterday
High -- | Low -- °F
Precip. -- in
Pressure 30.03 in
Visibility 10.0 miles
Clouds Clear
Dew Point 64 °F
Humidity 78%
Rainfall 0.10 in
Snow Depth Not available.
5:59 AM 8:39 PM
Waning Crescent, 11% visible
METAR KOWA 302035Z AUTO 04006KT 10SM -RA CLR 22/18 A3003 RMK AO2 P0005
Pressure 30.03 in
Visibility 10.0 miles
Clouds Clear
Dew Point 64 °F
Humidity 78%
Rainfall 0.10 in
Snow Depth Not available.
5:59 AM 8:39 PM
Waning Crescent, 11% visible
METAR KOWA 302035Z AUTO 04006KT 10SM -RA CLR 22/18 A3003 RMK AO2 P0005

10-Day Weather Forecast

Almanac

Astronomy

Jul. 30, 2016 Rise Set
Actual Time
Civil Twilight
Nautical Twilight
Astronomical Twilight
Moon
Length of Visible Light
Length of Day
Tomorrow will be .
, % of the Moon is Illuminated

Today's Extremes

State Highs State Lows

Community

WunderPhotos

Upload Photos

1,928,632 photos uploaded!

WunderBlog® & News

Nearby

Air Quality

  Air Quality AQ Index Pollutant
Not available.

Snow Depth

Station Depth Elevation

Earthquake Activity

City Distance Mag. Time & Date
Minimum magnitude displayed is 2.5.

Coastal Water Temperatures

Place Temperature

Stations

Nearby Weather Stations

Station Location Temp. Windchill Dew Point Humidity Wind Precip. Elev Updated Type
                   

Watches & Warnings

There are currently no watches in effect.